Bible Grove, Illinois
Current Conditions -  °F | °C
As of 7:55 PM on Monday 24 Nov 2014 (Local Time) from KFOA Reporting Station
Clear Clear  
Wind Chill: 33°   Ceiling: Unl
Heat Index: 37°   Visibility: 10mi
Dew Point: 30°   Wind: 5mph
Humidity: 76%   Direction: 250°WSW
Pressure: 29.94"   Gusts: NA
Location:  38.8267°N, 88.5024°W
Report Text: KFOA 250155Z AUTO 25004KT 10SM CLR 03/M01 A2994 RMK AO2 T00281010
Loading
Personal Weather Stations






























Interactive Weather Map New forecast layout! Learn more

10-Day Weather Forecast

Advertisements
Track Severe Weather on mobile